SKW3861 KATW-KMSP
Flight info
| Callsign | SKW3861 |
|---|---|
| Flight time | 0h 45m |
| Altitude | 20000 |
| Route | SHEAY MUSCL4 |
| Aircraft | CRJ9/M-SDFGIRWY/S |
Departure
| Time | 2026-05-06 23:25 |
|---|---|
| Airport | Appleton International Airport (KATW) |
Arrival
| Time | 2026-05-07 00:10 |
|---|---|
| Airport | Minneapolis–Saint Paul International Airport / Wold–Chamberlain Field (KMSP) |
| Time | Latitude | Longitude | Altitude | Speed | Heading |
|---|---|---|---|---|---|
| 2026-05-06 23:04 | 44.26080 | -88.51342 | 886 ft | 0 kts | 202° |
| 2026-05-06 23:15 | 44.26091 | -88.51336 | 886 ft | 2 kts | 202° |
| 2026-05-06 23:15 | 44.26111 | -88.51318 | 885 ft | 4 kts | 231° |
| 2026-05-06 23:16 | 44.26121 | -88.51285 | 886 ft | 4 kts | 264° |
| 2026-05-06 23:16 | 44.26121 | -88.51264 | 887 ft | 1 kts | 270° |
| 2026-05-06 23:16 | 44.26121 | -88.51262 | 887 ft | 0 kts | 270° |
| 2026-05-06 23:18 | 44.26121 | -88.51263 | 887 ft | 1 kts | 270° |
| 2026-05-06 23:18 | 44.26121 | -88.51282 | 887 ft | 3 kts | 270° |
| 2026-05-06 23:19 | 44.26121 | -88.51333 | 886 ft | 7 kts | 270° |
| 2026-05-06 23:19 | 44.26121 | -88.51392 | 888 ft | 7 kts | 270° |
| 2026-05-06 23:19 | 44.26121 | -88.51469 | 888 ft | 10 kts | 271° |
| 2026-05-06 23:19 | 44.26138 | -88.51573 | 891 ft | 10 kts | 264° |
| 2026-05-06 23:20 | 44.26104 | -88.51624 | 893 ft | 7 kts | 206° |
| 2026-05-06 23:20 | 44.26052 | -88.51660 | 893 ft | 10 kts | 205° |
| 2026-05-06 23:20 | 44.25970 | -88.51715 | 895 ft | 15 kts | 206° |
| 2026-05-06 23:20 | 44.25878 | -88.51778 | 897 ft | 14 kts | 204° |
| 2026-05-06 23:21 | 44.25798 | -88.51722 | 896 ft | 15 kts | 118° |
| 2026-05-06 23:21 | 44.25767 | -88.51638 | 896 ft | 15 kts | 116° |
| 2026-05-06 23:21 | 44.25705 | -88.51459 | 896 ft | 16 kts | 115° |
| 2026-05-06 23:21 | 44.25672 | -88.51362 | 897 ft | 17 kts | 116° |
| 2026-05-06 23:22 | 44.25619 | -88.51213 | 898 ft | 18 kts | 116° |
| 2026-05-06 23:22 | 44.25542 | -88.50993 | 898 ft | 19 kts | 116° |
| 2026-05-06 23:22 | 44.25501 | -88.50878 | 899 ft | 20 kts | 116° |
| 2026-05-06 23:22 | 44.25446 | -88.50731 | 896 ft | 11 kts | 130° |
| 2026-05-06 23:23 | 44.25426 | -88.50715 | 897 ft | 0 kts | 172° |
| 2026-05-06 23:23 | 44.25408 | -88.50717 | 898 ft | 5 kts | 195° |
| 2026-05-06 23:23 | 44.25360 | -88.50744 | 900 ft | 11 kts | 202° |
| 2026-05-06 23:24 | 44.25347 | -88.50790 | 900 ft | 3 kts | 297° |
| 2026-05-06 23:24 | 44.25406 | -88.50958 | 902 ft | 48 kts | 296° |
| 2026-05-06 23:24 | 44.25665 | -88.51686 | 897 ft | 117 kts | 296° |
| 2026-05-06 23:24 | 44.26097 | -88.52906 | 1077 ft | 153 kts | 297° |
| 2026-05-06 23:25 | 44.26585 | -88.54199 | 1918 ft | 151 kts | 297° |
| 2026-05-06 23:25 | 44.27088 | -88.55485 | 2734 ft | 150 kts | 297° |
| 2026-05-06 23:25 | 44.27592 | -88.56849 | 3206 ft | 172 kts | 296° |
| 2026-05-06 23:25 | 44.28167 | -88.58503 | 3549 ft | 205 kts | 295° |
| 2026-05-06 23:26 | 44.28809 | -88.60420 | 4065 ft | 230 kts | 294° |
| 2026-05-06 23:26 | 44.29520 | -88.62555 | 4653 ft | 251 kts | 296° |
| 2026-05-06 23:26 | 44.30365 | -88.64714 | 5523 ft | 257 kts | 300° |
| 2026-05-06 23:26 | 44.31294 | -88.66837 | 6540 ft | 254 kts | 301° |
| 2026-05-06 23:27 | 44.32226 | -88.68921 | 7484 ft | 250 kts | 300° |
| 2026-05-06 23:27 | 44.33127 | -88.70955 | 8455 ft | 246 kts | 300° |
| 2026-05-06 23:27 | 44.33998 | -88.72991 | 9452 ft | 239 kts | 299° |
| 2026-05-06 23:27 | 44.34829 | -88.74968 | 10401 ft | 232 kts | 299° |
| 2026-05-06 23:28 | 44.35633 | -88.76893 | 11083 ft | 235 kts | 299° |
| 2026-05-06 23:28 | 44.36456 | -88.78868 | 11793 ft | 235 kts | 298° |
| 2026-05-06 23:28 | 44.37285 | -88.80849 | 12496 ft | 236 kts | 298° |
| 2026-05-06 23:28 | 44.38108 | -88.82827 | 13184 ft | 238 kts | 298° |
| 2026-05-06 23:29 | 44.38949 | -88.84845 | 13863 ft | 239 kts | 298° |
| 2026-05-06 23:29 | 44.39789 | -88.86866 | 14473 ft | 240 kts | 298° |
| 2026-05-06 23:29 | 44.40625 | -88.88875 | 15086 ft | 242 kts | 298° |
| 2026-05-06 23:29 | 44.41472 | -88.90915 | 15689 ft | 243 kts | 298° |
| 2026-05-06 23:30 | 44.42329 | -88.92976 | 16274 ft | 246 kts | 298° |
| 2026-05-06 23:30 | 44.43192 | -88.95059 | 16872 ft | 248 kts | 298° |
| 2026-05-06 23:30 | 44.44063 | -88.97156 | 17452 ft | 249 kts | 298° |
| 2026-05-06 23:30 | 44.44924 | -88.99240 | 18027 ft | 251 kts | 297° |
| 2026-05-06 23:31 | 44.45807 | -89.01375 | 18554 ft | 253 kts | 298° |
| 2026-05-06 23:31 | 44.46695 | -89.03519 | 19052 ft | 255 kts | 298° |
| 2026-05-06 23:31 | 44.47584 | -89.05670 | 19535 ft | 256 kts | 297° |
| 2026-05-06 23:31 | 44.48482 | -89.07851 | 19801 ft | 266 kts | 298° |
| 2026-05-06 23:32 | 44.49435 | -89.10166 | 19942 ft | 281 kts | 298° |
| 2026-05-06 23:32 | 44.50441 | -89.12615 | 20001 ft | 297 kts | 297° |
| 2026-05-06 23:32 | 44.51490 | -89.15199 | 20050 ft | 313 kts | 298° |
| 2026-05-06 23:32 | 44.52583 | -89.17890 | 20064 ft | 328 kts | 298° |
| 2026-05-06 23:33 | 44.53751 | -89.20744 | 20065 ft | 343 kts | 298° |
| 2026-05-06 23:33 | 44.54967 | -89.23704 | 20059 ft | 356 kts | 298° |
| 2026-05-06 23:33 | 44.56210 | -89.26731 | 20057 ft | 358 kts | 298° |
| 2026-05-06 23:33 | 44.57448 | -89.29747 | 20047 ft | 359 kts | 298° |
| 2026-05-06 23:34 | 44.58694 | -89.32777 | 20037 ft | 357 kts | 298° |
| 2026-05-06 23:34 | 44.59937 | -89.35808 | 20027 ft | 356 kts | 298° |
| 2026-05-06 23:34 | 44.61153 | -89.38784 | 20020 ft | 355 kts | 298° |
| 2026-05-06 23:34 | 44.62384 | -89.41803 | 20021 ft | 354 kts | 298° |
| 2026-05-06 23:35 | 44.63600 | -89.44797 | 20016 ft | 353 kts | 298° |
| 2026-05-06 23:35 | 44.64821 | -89.47798 | 20006 ft | 352 kts | 298° |
| 2026-05-06 23:35 | 44.66026 | -89.50755 | 20011 ft | 351 kts | 298° |
| 2026-05-06 23:35 | 44.67237 | -89.53734 | 20013 ft | 350 kts | 298° |
| 2026-05-06 23:36 | 44.68432 | -89.56676 | 20000 ft | 349 kts | 298° |
| 2026-05-06 23:36 | 44.69637 | -89.59651 | 19988 ft | 349 kts | 298° |
| 2026-05-06 23:36 | 44.70842 | -89.62626 | 19998 ft | 348 kts | 298° |
| 2026-05-06 23:36 | 44.72034 | -89.65573 | 19993 ft | 348 kts | 298° |
| 2026-05-06 23:37 | 44.73220 | -89.68506 | 19986 ft | 347 kts | 298° |
| 2026-05-06 23:37 | 44.74417 | -89.71472 | 19987 ft | 347 kts | 298° |
| 2026-05-06 23:37 | 44.75607 | -89.74421 | 19986 ft | 346 kts | 298° |
| 2026-05-06 23:37 | 44.76800 | -89.77383 | 19992 ft | 346 kts | 298° |
| 2026-05-06 23:38 | 44.77975 | -89.80304 | 19991 ft | 346 kts | 298° |
| 2026-05-06 23:38 | 44.79167 | -89.83267 | 19994 ft | 346 kts | 298° |
| 2026-05-06 23:38 | 44.80351 | -89.86214 | 20005 ft | 345 kts | 298° |
| 2026-05-06 23:38 | 44.81523 | -89.89137 | 20006 ft | 345 kts | 298° |
| 2026-05-06 23:39 | 44.82705 | -89.92084 | 20010 ft | 345 kts | 298° |
| 2026-05-06 23:39 | 44.83876 | -89.95013 | 20019 ft | 345 kts | 298° |
| 2026-05-06 23:39 | 44.85060 | -89.97971 | 20011 ft | 345 kts | 298° |
| 2026-05-06 23:39 | 44.86238 | -90.00923 | 20015 ft | 344 kts | 298° |
| 2026-05-06 23:40 | 44.87404 | -90.03865 | 20030 ft | 344 kts | 299° |
| 2026-05-06 23:40 | 44.88529 | -90.06807 | 20016 ft | 343 kts | 292° |
| 2026-05-06 23:40 | 44.89188 | -90.10060 | 20038 ft | 343 kts | 283° |
| 2026-05-06 23:40 | 44.89590 | -90.13381 | 20038 ft | 343 kts | 279° |
| 2026-05-06 23:41 | 44.89853 | -90.16705 | 20038 ft | 344 kts | 277° |
| 2026-05-06 23:41 | 44.90093 | -90.20068 | 20036 ft | 344 kts | 277° |
| 2026-05-06 23:41 | 44.90336 | -90.23430 | 20034 ft | 343 kts | 278° |
| 2026-05-06 23:41 | 44.90614 | -90.26732 | 20034 ft | 343 kts | 279° |
| 2026-05-06 23:42 | 44.90904 | -90.30082 | 20034 ft | 343 kts | 279° |
| 2026-05-06 23:42 | 44.91196 | -90.33442 | 20038 ft | 343 kts | 279° |
| 2026-05-06 23:42 | 44.91484 | -90.36745 | 20040 ft | 343 kts | 278° |
| 2026-05-06 23:42 | 44.91774 | -90.40099 | 20034 ft | 343 kts | 279° |
| 2026-05-06 23:43 | 44.92062 | -90.43440 | 20037 ft | 343 kts | 279° |
| 2026-05-06 23:43 | 44.92347 | -90.46786 | 20042 ft | 342 kts | 279° |
| 2026-05-06 23:43 | 44.92630 | -90.50095 | 20045 ft | 342 kts | 279° |
| 2026-05-06 23:43 | 44.92916 | -90.53441 | 20047 ft | 342 kts | 279° |
| 2026-05-06 23:44 | 44.93202 | -90.56799 | 20047 ft | 342 kts | 279° |
| 2026-05-06 23:44 | 44.93480 | -90.60113 | 20047 ft | 342 kts | 279° |
| 2026-05-06 23:44 | 44.93762 | -90.63457 | 20049 ft | 343 kts | 279° |
| 2026-05-06 23:44 | 44.94040 | -90.66771 | 20049 ft | 343 kts | 279° |
| 2026-05-06 23:45 | 44.94312 | -90.70110 | 20050 ft | 343 kts | 279° |
| 2026-05-06 23:45 | 44.94600 | -90.73454 | 20050 ft | 343 kts | 279° |
| 2026-05-06 23:45 | 44.94881 | -90.76803 | 20039 ft | 343 kts | 279° |
| 2026-05-06 23:45 | 44.95159 | -90.80145 | 20049 ft | 342 kts | 279° |
| 2026-05-06 23:46 | 44.95437 | -90.83487 | 20055 ft | 342 kts | 279° |
| 2026-05-06 23:46 | 44.95711 | -90.86799 | 20056 ft | 342 kts | 279° |
| 2026-05-06 23:46 | 44.95986 | -90.90142 | 20057 ft | 342 kts | 279° |
| 2026-05-06 23:46 | 44.96261 | -90.93492 | 20061 ft | 343 kts | 279° |
| 2026-05-06 23:47 | 44.96537 | -90.96844 | 20059 ft | 343 kts | 279° |
| 2026-05-06 23:47 | 44.96805 | -91.00152 | 20061 ft | 343 kts | 279° |
| 2026-05-06 23:47 | 44.97081 | -91.03531 | 20059 ft | 343 kts | 279° |
| 2026-05-06 23:47 | 44.97346 | -91.06847 | 20057 ft | 343 kts | 279° |
| 2026-05-06 23:48 | 44.97619 | -91.10210 | 20056 ft | 343 kts | 279° |
| 2026-05-06 23:48 | 44.97890 | -91.13575 | 20055 ft | 343 kts | 279° |
| 2026-05-06 23:48 | 44.98154 | -91.16883 | 20039 ft | 343 kts | 278° |
| 2026-05-06 23:48 | 44.98419 | -91.20240 | 20048 ft | 343 kts | 279° |
| 2026-05-06 23:49 | 44.98689 | -91.23596 | 20057 ft | 342 kts | 278° |
| 2026-05-06 23:49 | 44.98950 | -91.26919 | 20056 ft | 339 kts | 278° |
| 2026-05-06 23:49 | 44.99206 | -91.30184 | 20054 ft | 336 kts | 279° |
| 2026-05-06 23:49 | 44.99465 | -91.33470 | 20044 ft | 333 kts | 279° |
| 2026-05-06 23:50 | 44.99721 | -91.36718 | 20041 ft | 330 kts | 278° |
| 2026-05-06 23:50 | 45.00212 | -91.43102 | 20060 ft | 326 kts | 278° |
| 2026-05-06 23:50 | 45.00449 | -91.46256 | 20056 ft | 324 kts | 279° |
| 2026-05-06 23:51 | 45.00698 | -91.49416 | 20008 ft | 323 kts | 279° |
| 2026-05-06 23:51 | 45.00951 | -91.52629 | 19688 ft | 331 kts | 279° |
| 2026-05-06 23:51 | 45.01201 | -91.55891 | 19349 ft | 333 kts | 278° |
| 2026-05-06 23:51 | 45.01443 | -91.59116 | 19041 ft | 331 kts | 278° |
| 2026-05-06 23:52 | 45.01688 | -91.62312 | 18730 ft | 328 kts | 278° |
| 2026-05-06 23:52 | 45.01926 | -91.65502 | 18418 ft | 324 kts | 278° |
| 2026-05-06 23:52 | 45.02165 | -91.68671 | 18062 ft | 322 kts | 278° |
| 2026-05-06 23:52 | 45.02400 | -91.71814 | 17703 ft | 319 kts | 278° |
| 2026-05-06 23:53 | 45.02628 | -91.74909 | 17340 ft | 317 kts | 278° |
| 2026-05-06 23:53 | 45.02852 | -91.78017 | 16986 ft | 316 kts | 278° |
| 2026-05-06 23:53 | 45.03083 | -91.81085 | 16637 ft | 315 kts | 278° |
| 2026-05-06 23:53 | 45.03314 | -91.84134 | 16292 ft | 314 kts | 278° |
| 2026-05-06 23:54 | 45.03542 | -91.87217 | 15941 ft | 313 kts | 278° |
| 2026-05-06 23:54 | 45.03765 | -91.90286 | 15609 ft | 312 kts | 278° |
| 2026-05-06 23:54 | 45.03987 | -91.93294 | 15274 ft | 311 kts | 278° |
| 2026-05-06 23:54 | 45.04210 | -91.96368 | 14944 ft | 310 kts | 278° |
| 2026-05-06 23:55 | 45.04428 | -91.99383 | 14623 ft | 309 kts | 278° |
| 2026-05-06 23:55 | 45.04646 | -92.02410 | 14307 ft | 309 kts | 278° |
| 2026-05-06 23:55 | 45.04865 | -92.05434 | 13987 ft | 308 kts | 278° |
| 2026-05-06 23:55 | 45.05076 | -92.08401 | 13641 ft | 307 kts | 278° |
| 2026-05-06 23:56 | 45.05289 | -92.11411 | 13282 ft | 306 kts | 278° |
| 2026-05-06 23:56 | 45.05506 | -92.14419 | 12922 ft | 305 kts | 278° |
| 2026-05-06 23:56 | 45.05715 | -92.17360 | 12567 ft | 304 kts | 278° |
| 2026-05-06 23:56 | 45.05918 | -92.20341 | 12222 ft | 302 kts | 276° |
| 2026-05-06 23:57 | 45.05824 | -92.23316 | 11871 ft | 304 kts | 264° |
| 2026-05-06 23:57 | 45.05431 | -92.26253 | 11535 ft | 303 kts | 261° |
| 2026-05-06 23:57 | 45.04933 | -92.29153 | 11191 ft | 302 kts | 259° |
| 2026-05-06 23:57 | 45.04433 | -92.31983 | 10863 ft | 300 kts | 259° |
| 2026-05-06 23:58 | 45.03935 | -92.34847 | 10535 ft | 295 kts | 260° |
| 2026-05-06 23:58 | 45.03484 | -92.37624 | 10189 ft | 283 kts | 261° |
| 2026-05-06 23:58 | 45.03060 | -92.40288 | 9838 ft | 273 kts | 261° |
| 2026-05-06 23:58 | 45.02657 | -92.42841 | 9513 ft | 266 kts | 261° |
| 2026-05-06 23:59 | 45.02257 | -92.45378 | 9205 ft | 261 kts | 260° |
| 2026-05-06 23:59 | 45.01865 | -92.47843 | 8885 ft | 258 kts | 260° |
| 2026-05-06 23:59 | 45.01477 | -92.50306 | 8583 ft | 256 kts | 260° |
| 2026-05-06 23:59 | 45.01085 | -92.52785 | 8288 ft | 257 kts | 260° |
| 2026-05-07 00:00 | 45.00694 | -92.55234 | 8120 ft | 256 kts | 259° |
| 2026-05-07 00:00 | 45.00037 | -92.57553 | 8040 ft | 256 kts | 237° |
| 2026-05-07 00:00 | 44.98908 | -92.59461 | 8042 ft | 255 kts | 231° |
| 2026-05-07 00:00 | 44.98078 | -92.60676 | 8041 ft | 258 kts | 228° |
| 2026-05-07 00:01 | 44.96330 | -92.63053 | 8036 ft | 263 kts | 227° |
| 2026-05-07 00:01 | 44.94995 | -92.64816 | 7872 ft | 265 kts | 227° |
| 2026-05-07 00:01 | 44.93652 | -92.66562 | 7702 ft | 258 kts | 227° |
| 2026-05-07 00:01 | 44.92354 | -92.68278 | 7508 ft | 251 kts | 227° |
| 2026-05-07 00:02 | 44.91128 | -92.69941 | 7320 ft | 244 kts | 228° |
| 2026-05-07 00:02 | 44.89923 | -92.71597 | 7147 ft | 238 kts | 228° |
| 2026-05-07 00:02 | 44.88750 | -92.73183 | 7062 ft | 228 kts | 228° |
| 2026-05-07 00:02 | 44.87645 | -92.74702 | 7027 ft | 218 kts | 229° |
| 2026-05-07 00:03 | 44.86570 | -92.76171 | 7004 ft | 212 kts | 229° |
| 2026-05-07 00:03 | 44.85495 | -92.77640 | 6741 ft | 218 kts | 229° |
| 2026-05-07 00:03 | 44.84403 | -92.79131 | 6469 ft | 221 kts | 228° |
| 2026-05-07 00:03 | 44.83298 | -92.80636 | 6183 ft | 223 kts | 228° |
| 2026-05-07 00:04 | 44.82174 | -92.82166 | 5880 ft | 223 kts | 227° |
| 2026-05-07 00:04 | 44.81074 | -92.83668 | 5594 ft | 222 kts | 227° |
| 2026-05-07 00:04 | 44.79975 | -92.85204 | 5293 ft | 219 kts | 234° |
| 2026-05-07 00:04 | 44.79447 | -92.87108 | 5015 ft | 208 kts | 266° |
| 2026-05-07 00:05 | 44.79386 | -92.89113 | 4748 ft | 203 kts | 272° |
| 2026-05-07 00:05 | 44.79435 | -92.91084 | 4482 ft | 201 kts | 275° |
| 2026-05-07 00:05 | 44.79514 | -92.93053 | 4212 ft | 201 kts | 275° |
| 2026-05-07 00:05 | 44.79582 | -92.94994 | 4075 ft | 195 kts | 274° |
| 2026-05-07 00:06 | 44.79619 | -92.96912 | 4035 ft | 196 kts | 272° |
| 2026-05-07 00:06 | 44.79641 | -92.98831 | 4004 ft | 195 kts | 273° |
| 2026-05-07 00:06 | 44.79866 | -93.00673 | 3965 ft | 189 kts | 300° |
| 2026-05-07 00:06 | 44.80606 | -93.02147 | 3892 ft | 185 kts | 304° |
| 2026-05-07 00:07 | 44.81337 | -93.03718 | 3499 ft | 195 kts | 301° |
| 2026-05-07 00:07 | 44.82030 | -93.05315 | 3240 ft | 187 kts | 301° |
| 2026-05-07 00:07 | 44.82667 | -93.06780 | 3144 ft | 162 kts | 301° |
| 2026-05-07 00:07 | 44.83237 | -93.08082 | 3113 ft | 152 kts | 301° |
| 2026-05-07 00:08 | 44.83799 | -93.09357 | 3028 ft | 157 kts | 301° |
| 2026-05-07 00:08 | 44.84373 | -93.10639 | 2638 ft | 149 kts | 301° |
| 2026-05-07 00:08 | 44.84719 | -93.11435 | 2406 ft | 137 kts | 300° |
| 2026-05-07 00:08 | 44.85190 | -93.12563 | 2016 ft | 139 kts | 300° |
| 2026-05-07 00:09 | 44.85684 | -93.13775 | 1871 ft | 142 kts | 300° |
| 2026-05-07 00:09 | 44.86176 | -93.14948 | 1671 ft | 136 kts | 301° |
| 2026-05-07 00:09 | 44.86852 | -93.16465 | 1354 ft | 139 kts | 300° |
| 2026-05-07 00:09 | 44.87197 | -93.17259 | 1206 ft | 142 kts | 300° |
| 2026-05-07 00:10 | 44.87715 | -93.18433 | 1017 ft | 139 kts | 298° |
| 2026-05-07 00:10 | 44.88205 | -93.19578 | 840 ft | 134 kts | 299° |
| 2026-05-07 00:10 | 44.88627 | -93.20556 | 821 ft | 96 kts | 301° |
| 2026-05-07 00:10 | 44.88842 | -93.21054 | 824 ft | 39 kts | 301° |
| 2026-05-07 00:11 | 44.88903 | -93.21202 | 824 ft | 17 kts | 287° |
| 2026-05-07 00:11 | 44.88841 | -93.21309 | 823 ft | 10 kts | 169° |
| 2026-05-07 00:11 | 44.88791 | -93.21237 | 823 ft | 11 kts | 120° |
| 2026-05-07 00:11 | 44.88747 | -93.21132 | 823 ft | 14 kts | 121° |
| 2026-05-07 00:12 | 44.88694 | -93.21008 | 823 ft | 16 kts | 121° |
| 2026-05-07 00:12 | 44.88632 | -93.20866 | 823 ft | 19 kts | 121° |
| 2026-05-07 00:12 | 44.88559 | -93.20697 | 823 ft | 20 kts | 121° |
| 2026-05-07 00:12 | 44.88486 | -93.20528 | 823 ft | 21 kts | 121° |
| 2026-05-07 00:13 | 44.88411 | -93.20354 | 823 ft | 21 kts | 122° |
| 2026-05-07 00:13 | 44.88335 | -93.20179 | 823 ft | 21 kts | 120° |
| 2026-05-07 00:13 | 44.88265 | -93.20017 | 823 ft | 13 kts | 123° |
| 2026-05-07 00:13 | 44.88216 | -93.19928 | 823 ft | 9 kts | 162° |
| 2026-05-07 00:14 | 44.88160 | -93.19949 | 823 ft | 8 kts | 211° |
| 2026-05-07 00:14 | 44.88135 | -93.19970 | 823 ft | 1 kts | 211° |
| 2026-05-07 00:14 | 44.88135 | -93.19971 | 823 ft | 0 kts | 211° |